Terminal Aerodrome Forecast
Issued by NWS Amarillo, TX

Home | Current Version | Previous Version | Text Only | Print | Product List | Glossary On
Versions: 1 2 3 4 5 6 7 8 9 10 11 12 13
000
FTUS44 KAMA 230200 AAA
TAFGUY
TAF AMD
KGUY 230218Z 2302/2324 19019G27KT P6SM VCTS SCT040CB BKN100
     FM230500 20012KT P6SM SCT120
     FM231500 21017G26KT P6SM FEW090=

USA.gov is the U.S. government's official web portal to all federal, state and local government web resources and services.